Time,TemperatureF,DewpointF,PressureIn,WindDirection,WindDirectionDegrees,WindSpeedMPH,WindSpeedGustMPH,Humidity,HourlyPrecipIn,Conditions,Clouds,dailyrainin,SoftwareType,DateUTC
2013-01-29 00:03:00,46.5,39.7,30.35,NNE,23,0.0,0.0,77,0.00,,,0.00,WUHU216HW,2013-01-29 05:03:00,
2013-01-29 00:08:00,46.5,39.7,30.35,NNE,23,0.0,0.0,77,0.00,,,0.00,WUHU216HW,2013-01-29 05:08:00,
2013-01-29 00:13:00,46.5,39.7,30.34,NNE,23,0.0,0.0,77,0.00,,,0.00,WUHU216HW,2013-01-29 05:13:00,
2013-01-29 00:18:00,46.5,39.7,30.35,NNE,23,0.0,0.0,77,0.00,,,0.00,WUHU216HW,2013-01-29 05:18:00,
2013-01-29 00:23:00,46.2,39.7,30.35,NNE,23,0.0,0.0,78,0.00,,,0.00,WUHU216HW,2013-01-29 05:23:00,
2013-01-29 00:28:00,46.0,39.5,30.35,NNE,23,0.0,0.0,78,0.00,,,0.00,WUHU216HW,2013-01-29 05:28:00,
2013-01-29 00:33:00,46.0,39.5,30.34,NNE,23,0.0,0.0,78,0.00,,,0.00,WUHU216HW,2013-01-29 05:33:00,
2013-01-29 00:38:00,46.0,39.5,30.34,NNE,23,0.0,0.0,78,0.00,,,0.00,WUHU216HW,2013-01-29 05:38:00,
2013-01-29 00:43:00,45.6,39.2,30.34,NNE,23,0.0,0.0,78,0.00,,,0.00,WUHU216HW,2013-01-29 05:43:00,
2013-01-29 00:48:00,45.6,39.2,30.35,NNE,23,0.0,0.0,78,0.00,,,0.00,WUHU216HW,2013-01-29 05:48:00,
2013-01-29 00:53:00,45.6,39.2,30.34,NNE,23,0.0,0.0,78,0.00,,,0.00,WUHU216HW,2013-01-29 05:53:00,
2013-01-29 00:58:00,45.3,39.3,30.34,NE,45,0.0,0.0,79,0.00,,,0.00,WUHU216HW,2013-01-29 05:58:00,
2013-01-29 01:03:00,45.3,39.2,30.34,NE,45,0.0,0.0,79,0.00,,,0.00,WUHU216HW,2013-01-29 06:03:00,
2013-01-29 01:08:00,45.1,39.0,30.34,NNE,23,0.0,0.0,79,0.00,,,0.00,WUHU216HW,2013-01-29 06:08:00,
2013-01-29 01:13:00,44.9,38.8,30.35,NE,45,0.0,0.0,79,0.00,,,0.00,WUHU216HW,2013-01-29 06:13:00,
2013-01-29 01:18:00,44.7,38.6,30.34,NE,45,0.0,0.0,79,0.00,,,0.00,WUHU216HW,2013-01-29 06:18:00,
2013-01-29 01:23:00,44.6,38.4,30.34,NE,45,0.0,0.0,79,0.00,,,0.00,WUHU216HW,2013-01-29 06:23:00,
2013-01-29 01:28:00,44.4,38.3,30.35,NE,45,0.0,0.0,79,0.00,,,0.00,WUHU216HW,2013-01-29 06:28:00,
2013-01-29 01:33:00,44.4,38.3,30.34,NE,45,0.0,0.0,79,0.00,,,0.00,WUHU216HW,2013-01-29 06:33:00,
2013-01-29 01:38:00,44.2,38.1,30.34,NE,45,0.0,0.0,79,0.00,,,0.00,WUHU216HW,2013-01-29 06:38:00,
2013-01-29 01:43:00,44.0,37.9,30.34,NE,45,0.0,0.0,79,0.00,,,0.00,WUHU216HW,2013-01-29 06:43:00,
2013-01-29 01:48:00,43.8,37.7,30.34,NE,45,0.0,0.0,79,0.00,,,0.00,WUHU216HW,2013-01-29 06:48:00,
2013-01-29 01:53:00,43.7,37.9,30.34,NE,45,0.0,0.0,80,0.00,,,0.00,WUHU216HW,2013-01-29 06:53:00,
2013-01-29 01:58:00,43.5,37.7,30.34,NE,45,0.0,0.0,80,0.00,,,0.00,WUHU216HW,2013-01-29 06:58:00,
2013-01-29 02:03:00,43.5,37.7,30.34,NE,45,0.0,0.0,80,0.00,,,0.00,WUHU216HW,2013-01-29 07:03:00,
2013-01-29 02:08:00,43.3,37.5,30.34,NE,45,0.0,0.0,80,0.00,,,0.00,WUHU216HW,2013-01-29 07:08:00,
2013-01-29 02:13:00,42.9,37.2,30.34,NE,45,0.0,0.0,80,0.00,,,0.00,WUHU216HW,2013-01-29 07:13:00,
2013-01-29 02:18:00,42.9,37.2,30.34,NE,45,0.0,0.0,80,0.00,,,0.00,WUHU216HW,2013-01-29 07:18:00,
2013-01-29 02:23:00,42.6,36.5,30.34,NE,45,0.0,0.0,79,0.00,,,0.00,WUHU216HW,2013-01-29 07:23:00,
2013-01-29 02:28:00,42.6,36.5,30.34,NE,45,0.0,0.0,79,0.00,,,0.00,WUHU216HW,2013-01-29 07:28:00,
2013-01-29 02:33:00,42.4,36.3,30.34,NE,45,0.0,0.0,79,0.00,,,0.00,WUHU216HW,2013-01-29 07:33:00,
2013-01-29 02:38:00,42.4,36.3,30.34,NE,45,0.0,0.0,79,0.00,,,0.00,WUHU216HW,2013-01-29 07:38:00,
2013-01-29 02:43:00,42.2,36.5,30.34,NE,45,0.0,0.0,80,0.00,,,0.00,WUHU216HW,2013-01-29 07:43:00,
2013-01-29 02:48:00,42.0,36.3,30.34,NE,45,0.0,0.0,80,0.00,,,0.00,WUHU216HW,2013-01-29 07:48:00,
2013-01-29 02:53:00,41.9,36.1,30.34,NE,45,0.0,0.0,80,0.00,,,0.00,WUHU216HW,2013-01-29 07:53:00,
2013-01-29 02:58:00,41.7,35.9,30.34,NE,45,0.0,0.0,80,0.00,,,0.00,WUHU216HW,2013-01-29 07:58:00,
2013-01-29 03:03:00,41.5,35.7,30.34,NE,45,0.0,0.0,80,0.00,,,0.00,WUHU216HW,2013-01-29 08:03:00,
2013-01-29 03:08:00,41.3,35.6,30.34,NE,45,0.0,0.0,80,0.00,,,0.00,WUHU216HW,2013-01-29 08:08:00,
2013-01-29 03:13:00,41.1,35.4,30.34,NE,45,0.0,0.0,80,0.00,,,0.00,WUHU216HW,2013-01-29 08:13:00,
2013-01-29 03:18:00,41.1,35.7,30.34,NE,45,0.0,0.0,81,0.00,,,0.00,WUHU216HW,2013-01-29 08:18:00,
2013-01-29 03:23:00,40.8,35.3,30.34,NE,45,0.0,0.0,81,0.00,,,0.00,WUHU216HW,2013-01-29 08:23:00,
2013-01-29 03:28:00,40.8,35.3,30.34,NE,45,0.0,0.0,81,0.00,,,0.00,WUHU216HW,2013-01-29 08:28:00,
2013-01-29 03:33:00,40.6,35.2,30.34,NE,45,0.0,0.0,81,0.00,,,0.00,WUHU216HW,2013-01-29 08:33:00,
2013-01-29 03:38:00,40.2,34.8,30.34,NE,45,0.0,0.0,81,0.00,,,0.00,WUHU216HW,2013-01-29 08:38:00,
2013-01-29 03:43:00,40.2,34.8,30.34,NE,45,0.0,0.0,81,0.00,,,0.00,WUHU216HW,2013-01-29 08:43:00,
2013-01-29 03:48:00,40.2,34.8,30.34,NE,45,0.0,0.0,81,0.00,,,0.00,WUHU216HW,2013-01-29 08:48:00,
2013-01-29 03:53:00,40.1,34.7,30.34,NE,45,0.0,0.0,81,0.00,,,0.00,WUHU216HW,2013-01-29 08:53:00,
2013-01-29 03:58:00,40.2,35.1,30.34,NE,45,0.0,0.0,82,0.00,,,0.00,WUHU216HW,2013-01-29 08:58:00,
2013-01-29 04:03:00,40.1,35.0,30.34,NE,45,0.0,0.0,82,0.00,,,0.00,WUHU216HW,2013-01-29 09:03:00,
2013-01-29 04:08:00,40.1,35.0,30.34,NE,45,0.0,0.0,82,0.00,,,0.00,WUHU216HW,2013-01-29 09:08:00,
2013-01-29 04:13:00,40.1,35.0,30.34,NE,45,0.0,0.0,82,0.00,,,0.00,WUHU216HW,2013-01-29 09:13:00,
2013-01-29 04:18:00,40.1,35.3,30.34,NE,45,0.0,0.0,83,0.00,,,0.00,WUHU216HW,2013-01-29 09:18:00,
2013-01-29 04:23:00,40.1,35.3,30.34,NE,45,0.0,0.0,83,0.00,,,0.00,WUHU216HW,2013-01-29 09:23:00,
2013-01-29 04:28:00,40.1,35.3,30.33,NE,45,0.0,0.0,83,0.00,,,0.00,WUHU216HW,2013-01-29 09:28:00,
2013-01-29 04:33:00,40.1,35.3,30.33,NE,45,0.0,0.0,83,0.00,,,0.00,WUHU216HW,2013-01-29 09:33:00,
2013-01-29 04:38:00,40.1,35.3,30.33,NE,45,0.0,0.0,83,0.00,,,0.00,WUHU216HW,2013-01-29 09:38:00,
2013-01-29 04:43:00,40.1,35.3,30.33,NE,45,0.0,0.0,83,0.00,,,0.00,WUHU216HW,2013-01-29 09:43:00,
2013-01-29 04:48:00,40.1,35.3,30.33,NE,45,0.0,0.0,83,0.00,,,0.00,WUHU216HW,2013-01-29 09:48:00,
2013-01-29 04:53:00,40.1,35.3,30.33,NE,45,0.0,0.0,83,0.00,,,0.00,WUHU216HW,2013-01-29 09:53:00,
2013-01-29 04:58:00,40.1,35.3,30.33,NE,45,0.0,0.0,83,0.00,,,0.00,WUHU216HW,2013-01-29 09:58:00,
2013-01-29 05:03:00,40.1,35.3,30.33,NE,45,0.0,0.0,83,0.00,,,0.00,WUHU216HW,2013-01-29 10:03:00,
2013-01-29 05:08:00,40.1,35.3,30.34,NE,45,0.0,0.0,83,0.00,,,0.00,WUHU216HW,2013-01-29 10:08:00,
2013-01-29 05:13:00,40.1,35.3,30.33,NE,45,0.0,0.0,83,0.00,,,0.00,WUHU216HW,2013-01-29 10:13:00,
2013-01-29 05:18:00,40.1,35.3,30.33,NE,45,0.0,0.0,83,0.00,,,0.00,WUHU216HW,2013-01-29 10:18:00,
2013-01-29 05:23:00,40.1,35.3,30.34,NE,45,0.0,0.0,83,0.00,,,0.00,WUHU216HW,2013-01-29 10:23:00,
2013-01-29 05:28:00,40.1,35.3,30.33,NE,45,0.0,0.0,83,0.00,,,0.00,WUHU216HW,2013-01-29 10:28:00,
2013-01-29 05:33:00,40.1,35.6,30.33,NE,45,0.0,0.0,84,0.00,,,0.00,WUHU216HW,2013-01-29 10:33:00,
2013-01-29 05:38:00,40.1,35.6,30.33,NE,45,0.0,0.0,84,0.00,,,0.00,WUHU216HW,2013-01-29 10:38:00,
2013-01-29 05:43:00,40.2,35.7,30.32,NE,45,0.0,0.0,84,0.00,,,0.00,WUHU216HW,2013-01-29 10:43:00,
2013-01-29 05:48:00,40.2,35.7,30.33,NNE,23,0.0,0.0,84,0.00,,,0.00,WUHU216HW,2013-01-29 10:48:00,
2013-01-29 05:53:00,40.2,35.7,30.32,NE,45,0.0,0.0,84,0.00,,,0.00,WUHU216HW,2013-01-29 10:53:00,
2013-01-29 05:58:00,40.2,35.7,30.32,NE,45,0.0,0.0,84,0.00,,,0.00,WUHU216HW,2013-01-29 10:58:00,
2013-01-29 06:03:00,40.2,35.7,30.32,NE,45,0.0,0.0,84,0.00,,,0.00,WUHU216HW,2013-01-29 11:03:00,
2013-01-29 06:08:00,40.2,35.7,30.32,NE,45,0.0,0.0,84,0.00,,,0.00,WUHU216HW,2013-01-29 11:08:00,
2013-01-29 06:13:00,40.2,35.7,30.32,NE,45,0.0,0.0,84,0.00,,,0.00,WUHU216HW,2013-01-29 11:13:00,
2013-01-29 06:18:00,40.2,36.0,30.32,NE,45,0.0,0.0,85,0.00,,,0.00,WUHU216HW,2013-01-29 11:18:00,
2013-01-29 06:23:00,40.2,36.0,30.32,NE,45,0.0,0.0,85,0.00,,,0.00,WUHU216HW,2013-01-29 11:23:00,
2013-01-29 06:28:00,40.2,36.0,30.32,NE,45,0.0,0.0,85,0.00,,,0.00,WUHU216HW,2013-01-29 11:28:00,
2013-01-29 06:33:00,40.2,36.0,30.32,NE,45,0.0,0.0,85,0.00,,,0.00,WUHU216HW,2013-01-29 11:33:00,
2013-01-29 06:38:00,40.2,36.0,30.32,NE,45,0.0,0.0,85,0.00,,,0.00,WUHU216HW,2013-01-29 11:38:00,
2013-01-29 06:43:00,40.1,35.9,30.32,NE,45,0.0,0.0,85,0.00,,,0.00,WUHU216HW,2013-01-29 11:43:00,
2013-01-29 06:48:00,39.9,35.7,30.32,NE,45,0.0,0.0,85,0.00,,,0.00,WUHU216HW,2013-01-29 11:48:00,
2013-01-29 06:53:00,39.9,35.4,30.32,NE,45,0.0,0.0,84,0.00,,,0.00,WUHU216HW,2013-01-29 11:53:00,
2013-01-29 06:58:00,39.7,35.2,30.32,NE,45,0.0,0.0,84,0.00,,,0.00,WUHU216HW,2013-01-29 11:58:00,
2013-01-29 07:03:00,39.5,35.0,30.33,NE,45,0.0,0.0,84,0.00,,,0.00,WUHU216HW,2013-01-29 12:03:00,
2013-01-29 07:08:00,39.3,34.9,30.33,NE,45,0.0,0.0,84,0.00,,,0.00,WUHU216HW,2013-01-29 12:08:00,
2013-01-29 07:13:00,39.3,34.9,30.33,NE,45,0.0,0.0,84,0.00,,,0.00,WUHU216HW,2013-01-29 12:13:00,
2013-01-29 07:18:00,39.3,34.9,30.33,NE,45,0.0,0.0,84,0.00,,,0.00,WUHU216HW,2013-01-29 12:18:00,
2013-01-29 07:23:00,39.0,34.5,30.33,NE,45,0.0,0.0,84,0.00,,,0.00,WUHU216HW,2013-01-29 12:23:00,
2013-01-29 07:28:00,39.0,34.5,30.33,NE,45,0.0,0.0,84,0.00,,,0.00,WUHU216HW,2013-01-29 12:28:00,
2013-01-29 07:33:00,39.0,34.5,30.33,NE,45,0.0,0.0,84,0.00,,,0.00,WUHU216HW,2013-01-29 12:33:00,
2013-01-29 07:38:00,39.0,34.5,30.33,NE,45,0.0,0.0,84,0.00,,,0.00,WUHU216HW,2013-01-29 12:38:00,
2013-01-29 07:43:00,38.8,34.4,30.33,NE,45,0.0,0.0,84,0.00,,,0.00,WUHU216HW,2013-01-29 12:43:00,
2013-01-29 07:48:00,38.8,34.4,30.33,NE,45,0.0,0.0,84,0.00,,,0.00,WUHU216HW,2013-01-29 12:48:00,
2013-01-29 07:53:00,38.4,34.0,30.33,NE,45,0.0,0.0,84,0.00,,,0.00,WUHU216HW,2013-01-29 12:53:00,
2013-01-29 07:58:00,38.4,34.0,30.33,NE,45,0.0,0.0,84,0.00,,,0.00,WUHU216HW,2013-01-29 12:58:00,
2013-01-29 08:03:00,38.4,34.0,30.33,NE,45,0.0,0.0,84,0.00,,,0.00,WUHU216HW,2013-01-29 13:03:00,
2013-01-29 08:08:00,38.4,34.0,30.33,NE,45,0.0,0.0,84,0.00,,,0.00,WUHU216HW,2013-01-29 13:08:00,
2013-01-29 08:13:00,38.4,34.0,30.32,NE,45,0.0,0.0,84,0.00,,,0.00,WUHU216HW,2013-01-29 13:13:00,
2013-01-29 08:18:00,38.6,34.5,30.32,NE,45,0.0,0.0,85,0.00,,,0.00,WUHU216HW,2013-01-29 13:18:00,
2013-01-29 08:23:00,38.8,34.7,30.33,NE,45,0.0,0.0,85,0.00,,,0.00,WUHU216HW,2013-01-29 13:23:00,
2013-01-29 08:28:00,38.8,34.7,30.33,NE,45,0.0,0.0,85,0.00,,,0.00,WUHU216HW,2013-01-29 13:28:00,
2013-01-29 08:33:00,38.8,34.7,30.33,NE,45,0.0,0.0,85,0.00,,,0.00,WUHU216HW,2013-01-29 13:33:00,
2013-01-29 08:38:00,39.0,34.8,30.33,NE,45,0.0,0.0,85,0.00,,,0.00,WUHU216HW,2013-01-29 13:38:00,
2013-01-29 08:43:00,39.5,35.6,30.33,NE,45,0.0,0.0,86,0.00,,,0.00,WUHU216HW,2013-01-29 13:43:00,
2013-01-29 08:48:00,39.7,35.8,30.33,NE,45,0.0,0.0,86,0.00,,,0.00,WUHU216HW,2013-01-29 13:48:00,
2013-01-29 08:53:00,40.2,36.3,30.34,NE,45,0.0,0.0,86,0.00,,,0.00,WUHU216HW,2013-01-29 13:53:00,
2013-01-29 08:59:00,40.6,36.7,30.34,NE,45,0.0,0.0,86,0.00,,,0.00,WUHU216HW,2013-01-29 13:59:00,
2013-01-29 09:04:00,40.8,36.8,30.34,NE,45,0.0,0.0,86,0.00,,,0.00,WUHU216HW,2013-01-29 14:04:00,
2013-01-29 09:09:00,41.1,37.5,30.33,NE,45,0.0,0.0,87,0.00,,,0.00,WUHU216HW,2013-01-29 14:09:00,
2013-01-29 09:14:00,41.5,37.9,30.33,NE,45,0.0,0.0,87,0.00,,,0.00,WUHU216HW,2013-01-29 14:14:00,
2013-01-29 09:19:00,41.9,38.2,30.33,NE,45,0.0,0.0,87,0.00,,,0.00,WUHU216HW,2013-01-29 14:19:00,
2013-01-29 09:24:00,42.6,39.0,30.33,NE,45,0.0,0.0,87,0.00,,,0.00,WUHU216HW,2013-01-29 14:24:00,
2013-01-29 09:29:00,43.1,39.8,30.34,NE,45,0.0,0.0,88,0.00,,,0.00,WUHU216HW,2013-01-29 14:29:00,
2013-01-29 09:34:00,44.0,40.7,30.34,NE,45,0.0,0.0,88,0.00,,,0.00,WUHU216HW,2013-01-29 14:34:00,
2013-01-29 09:39:00,44.9,41.6,30.34,NE,45,0.0,0.0,88,0.00,,,0.00,WUHU216HW,2013-01-29 14:39:00,
2013-01-29 09:44:00,45.6,42.3,30.33,NNE,23,0.0,0.0,88,0.00,,,0.00,WUHU216HW,2013-01-29 14:44:00,
2013-01-29 09:49:00,46.7,43.4,30.33,NNE,23,0.0,0.0,88,0.00,,,0.00,WUHU216HW,2013-01-29 14:49:00,
2013-01-29 09:54:00,47.4,44.1,30.33,NNE,23,0.0,0.0,88,0.00,,,0.00,WUHU216HW,2013-01-29 14:54:00,
2013-01-29 09:59:00,48.2,44.5,30.33,NNE,23,0.0,0.0,87,0.00,,,0.00,WUHU216HW,2013-01-29 14:59:00,
2013-01-29 10:04:00,48.9,44.8,30.33,NNE,23,0.0,0.0,86,0.00,,,0.00,WUHU216HW,2013-01-29 15:04:00,
2013-01-29 10:09:00,49.6,45.2,30.33,NNE,23,0.0,0.0,85,0.00,,,0.00,WUHU216HW,2013-01-29 15:09:00,
2013-01-29 10:14:00,50.1,45.7,30.33,NNE,23,0.0,0.0,85,0.00,,,0.00,WUHU216HW,2013-01-29 15:14:00,
2013-01-29 10:19:00,51.0,46.3,30.32,NNE,23,0.0,0.0,84,0.00,,,0.00,WUHU216HW,2013-01-29 15:19:00,
2013-01-29 10:24:00,51.6,46.5,30.32,NE,45,0.0,0.0,83,0.00,,,0.00,WUHU216HW,2013-01-29 15:24:00,
2013-01-29 10:29:00,52.3,47.3,30.32,NE,45,0.0,0.0,83,0.00,,,0.00,WUHU216HW,2013-01-29 15:29:00,
2013-01-29 10:34:00,53.7,48.4,30.32,NE,45,0.0,0.0,82,0.00,,,0.00,WUHU216HW,2013-01-29 15:34:00,
2013-01-29 10:39:00,54.3,48.6,30.32,NE,45,0.0,0.0,81,0.00,,,0.00,WUHU216HW,2013-01-29 15:39:00,
2013-01-29 10:44:00,55.2,49.1,30.32,NE,45,0.0,0.0,80,0.00,,,0.00,WUHU216HW,2013-01-29 15:44:00,
2013-01-29 10:49:00,56.3,49.4,30.31,NNE,23,0.0,0.0,78,0.00,,,0.00,WUHU216HW,2013-01-29 15:49:00,
2013-01-29 10:54:00,56.8,50.0,30.31,NNE,23,0.0,0.0,78,0.00,,,0.00,WUHU216HW,2013-01-29 15:54:00,
2013-01-29 10:59:00,57.5,50.3,30.31,SE,135,0.0,0.0,77,0.00,,,0.00,WUHU216HW,2013-01-29 15:59:00,
2013-01-29 11:04:00,58.2,50.3,30.31,SSE,158,0.0,0.0,75,0.00,,,0.00,WUHU216HW,2013-01-29 16:04:00,
2013-01-29 11:09:00,58.8,50.5,30.32,SE,135,0.0,0.0,74,0.00,,,0.00,WUHU216HW,2013-01-29 16:09:00,
2013-01-29 11:14:00,58.8,50.1,30.31,SE,135,0.0,0.0,73,0.00,,,0.00,WUHU216HW,2013-01-29 16:14:00,
2013-01-29 11:19:00,59.3,50.5,30.31,SSE,158,0.0,0.0,72,0.00,,,0.00,WUHU216HW,2013-01-29 16:19:00,
2013-01-29 11:24:00,60.4,51.0,30.31,SSE,158,0.0,0.0,71,0.00,,,0.00,WUHU216HW,2013-01-29 16:24:00,
2013-01-29 11:29:00,60.9,51.2,30.31,SSE,158,0.0,0.0,70,0.00,,,0.00,WUHU216HW,2013-01-29 16:29:00,
2013-01-29 11:34:00,61.8,51.6,30.31,SE,135,0.0,0.0,69,0.00,,,0.00,WUHU216HW,2013-01-29 16:34:00,
2013-01-29 11:39:00,62.4,51.7,30.31,SE,135,0.0,0.0,68,0.00,,,0.00,WUHU216HW,2013-01-29 16:39:00,
2013-01-29 11:44:00,63.1,51.9,30.31,SE,135,0.0,0.0,67,0.00,,,0.00,WUHU216HW,2013-01-29 16:44:00,
2013-01-29 11:49:00,63.6,51.2,30.30,SSE,158,0.0,2.4,64,0.00,,,0.00,WUHU216HW,2013-01-29 16:49:00,
2013-01-29 11:54:00,64.2,52.1,30.29,SSE,158,0.0,2.4,65,0.00,,,0.00,WUHU216HW,2013-01-29 16:54:00,
2013-01-29 11:59:00,64.5,52.0,30.29,SSE,158,0.0,0.0,64,0.00,,,0.00,WUHU216HW,2013-01-29 16:59:00,
2013-01-29 12:04:00,65.1,51.7,30.29,SE,135,3.3,3.3,62,0.00,,,0.00,WUHU216HW,2013-01-29 17:04:00,
2013-01-29 12:09:00,65.4,51.2,30.29,SE,135,0.0,3.3,60,0.00,,,0.00,WUHU216HW,2013-01-29 17:09:00,
2013-01-29 12:14:00,66.0,52.2,30.29,South,180,5.1,5.1,61,0.00,,,0.00,WUHU216HW,2013-01-29 17:14:00,
2013-01-29 12:19:00,66.3,52.1,30.28,SSW,203,0.0,5.1,60,0.00,,,0.00,WUHU216HW,2013-01-29 17:19:00,
2013-01-29 12:24:00,66.5,52.3,30.27,SE,135,0.0,5.1,60,0.00,,,0.00,WUHU216HW,2013-01-29 17:24:00,
2013-01-29 12:29:00,66.9,51.6,30.27,SE,135,0.0,3.8,58,0.00,,,0.00,WUHU216HW,2013-01-29 17:29:00,
2013-01-29 12:34:00,67.1,51.8,30.27,SE,135,0.0,0.0,58,0.00,,,0.00,WUHU216HW,2013-01-29 17:34:00,
2013-01-29 12:39:00,67.2,51.4,30.26,SSE,158,0.6,0.6,57,0.00,,,0.00,WUHU216HW,2013-01-29 17:39:00,
2013-01-29 12:44:00,67.6,51.8,30.27,SE,135,0.0,0.6,57,0.00,,,0.00,WUHU216HW,2013-01-29 17:44:00,
2013-01-29 12:49:00,67.8,51.9,30.26,ESE,113,0.0,0.0,57,0.00,,,0.00,WUHU216HW,2013-01-29 17:49:00,
2013-01-29 12:54:00,67.8,51.9,30.26,SSE,158,0.0,0.0,57,0.00,,,0.00,WUHU216HW,2013-01-29 17:54:00,
2013-01-29 12:59:00,68.1,52.3,30.26,SE,135,0.0,0.0,57,0.00,,,0.00,WUHU216HW,2013-01-29 17:59:00,
2013-01-29 13:04:00,68.3,52.4,30.25,ESE,113,0.0,0.0,57,0.00,,,0.00,WUHU216HW,2013-01-29 18:04:00,
2013-01-29 13:09:00,68.1,51.8,30.25,SE,135,0.0,0.0,56,0.00,,,0.00,WUHU216HW,2013-01-29 18:09:00,
2013-01-29 13:14:00,68.1,52.3,30.24,SE,135,0.0,0.0,57,0.00,,,0.00,WUHU216HW,2013-01-29 18:14:00,
2013-01-29 13:19:00,68.1,51.3,30.24,NNE,23,0.0,0.0,55,0.00,,,0.00,WUHU216HW,2013-01-29 18:19:00,
2013-01-29 13:24:00,67.8,50.5,30.24,NNW,338,0.0,0.0,54,0.00,,,0.00,WUHU216HW,2013-01-29 18:24:00,
2013-01-29 13:29:00,67.6,50.3,30.24,NNW,338,0.0,0.0,54,0.00,,,0.00,WUHU216HW,2013-01-29 18:29:00,
2013-01-29 13:34:00,67.6,50.8,30.24,SSE,158,0.0,0.8,55,0.00,,,0.00,WUHU216HW,2013-01-29 18:34:00,
2013-01-29 13:39:00,67.8,51.0,30.23,West,270,0.0,0.8,55,0.00,,,0.00,WUHU216HW,2013-01-29 18:39:00,
2013-01-29 13:44:00,67.6,50.8,30.23,SSE,158,0.0,4.9,55,0.00,,,0.00,WUHU216HW,2013-01-29 18:44:00,
2013-01-29 13:49:00,67.8,51.0,30.22,SE,135,0.0,4.9,55,0.00,,,0.00,WUHU216HW,2013-01-29 18:49:00,
2013-01-29 13:54:00,67.8,51.0,30.22,ESE,113,0.0,0.0,55,0.00,,,0.00,WUHU216HW,2013-01-29 18:54:00,
2013-01-29 13:59:00,68.1,50.8,30.22,SSE,158,0.0,0.0,54,0.00,,,0.00,WUHU216HW,2013-01-29 18:59:00,
2013-01-29 14:04:00,68.5,51.6,30.23,SSE,158,0.0,0.0,55,0.00,,,0.00,WUHU216HW,2013-01-29 19:04:00,
2013-01-29 14:09:00,68.7,51.8,30.23,SSE,158,0.0,0.0,55,0.00,,,0.00,WUHU216HW,2013-01-29 19:09:00,
2013-01-29 14:14:00,68.9,51.5,30.22,SSE,158,0.0,5.8,54,0.00,,,0.00,WUHU216HW,2013-01-29 19:14:00,
2013-01-29 14:19:00,69.0,51.6,30.22,SSE,158,0.0,5.8,54,0.00,,,0.00,WUHU216HW,2013-01-29 19:19:00,
2013-01-29 14:24:00,69.0,52.1,30.22,ESE,113,0.0,0.0,55,0.00,,,0.00,WUHU216HW,2013-01-29 19:24:00,
2013-01-29 14:29:00,69.0,51.6,30.22,SE,135,0.0,0.0,54,0.00,,,0.00,WUHU216HW,2013-01-29 19:29:00,
2013-01-29 14:34:00,69.2,51.8,30.21,SSE,158,0.0,0.0,54,0.00,,,0.00,WUHU216HW,2013-01-29 19:34:00,
2013-01-29 14:39:00,69.4,52.0,30.21,SSE,158,0.0,0.0,54,0.00,,,0.00,WUHU216HW,2013-01-29 19:39:00,
2013-01-29 14:44:00,69.2,51.8,30.21,SE,135,0.0,2.9,54,0.00,,,0.00,WUHU216HW,2013-01-29 19:44:00,
2013-01-29 14:49:00,69.2,51.8,30.21,SSE,158,0.0,2.9,54,0.00,,,0.00,WUHU216HW,2013-01-29 19:49:00,
2013-01-29 14:54:00,69.2,51.8,30.21,SSE,158,0.0,0.0,54,0.00,,,0.00,WUHU216HW,2013-01-29 19:54:00,
2013-01-29 14:59:00,69.2,51.3,30.20,SE,135,0.0,0.0,53,0.00,,,0.00,WUHU216HW,2013-01-29 19:59:00,
2013-01-29 15:04:00,69.4,51.5,30.20,SSE,158,0.0,0.0,53,0.00,,,0.00,WUHU216HW,2013-01-29 20:04:00,
2013-01-29 15:09:00,69.2,51.8,30.21,SSE,158,0.0,0.0,54,0.00,,,0.00,WUHU216HW,2013-01-29 20:09:00,
2013-01-29 15:14:00,69.0,51.1,30.21,SSE,158,0.0,0.0,54,0.00,,,0.00,WUHU216HW,2013-01-29 20:14:00,
2013-01-29 15:19:00,69.0,51.1,30.21,SSE,158,0.0,0.0,53,0.00,,,0.00,WUHU216HW,2013-01-29 20:19:00,
2013-01-29 15:24:00,68.9,51.5,30.21,SE,135,0.0,0.0,54,0.00,,,0.00,WUHU216HW,2013-01-29 20:24:00,
2013-01-29 15:29:00,68.7,51.3,30.21,SE,135,0.0,0.0,54,0.00,,,0.00,WUHU216HW,2013-01-29 20:29:00,
2013-01-29 15:34:00,68.7,51.3,30.20,South,180,0.0,3.5,54,0.00,,,0.00,WUHU216HW,2013-01-29 20:34:00,
2013-01-29 15:39:00,68.7,51.8,30.20,SSE,158,0.0,6.4,55,0.00,,,0.00,WUHU216HW,2013-01-29 20:39:00,
2013-01-29 15:44:00,68.7,52.3,30.20,SE,135,0.0,6.4,56,0.00,,,0.00,WUHU216HW,2013-01-29 20:44:00,
2013-01-29 15:49:00,68.7,52.8,30.20,SSE,158,0.0,0.0,57,0.00,,,0.00,WUHU216HW,2013-01-29 20:49:00,
2013-01-29 15:54:00,68.7,52.8,30.20,SSE,158,0.0,4.4,57,0.00,,,0.00,WUHU216HW,2013-01-29 20:54:00,
2013-01-29 15:59:00,68.5,53.1,30.20,SE,135,0.0,4.4,58,0.00,,,0.00,WUHU216HW,2013-01-29 20:59:00,
2013-01-29 16:04:00,68.3,53.4,30.20,SE,135,0.0,0.0,59,0.00,,,0.00,WUHU216HW,2013-01-29 21:04:00,
2013-01-29 16:09:00,68.1,53.2,30.20,SE,135,0.0,6.9,59,0.00,,,0.00,WUHU216HW,2013-01-29 21:09:00,
2013-01-29 16:14:00,68.1,53.7,30.20,SE,135,0.0,6.9,60,0.00,,,0.00,WUHU216HW,2013-01-29 21:14:00,
2013-01-29 16:19:00,67.6,53.6,30.20,SSE,158,0.0,3.8,61,0.00,,,0.00,WUHU216HW,2013-01-29 21:19:00,
2013-01-29 16:24:00,67.2,53.7,30.20,SE,135,0.0,4.4,62,0.00,,,0.00,WUHU216HW,2013-01-29 21:24:00,
2013-01-29 16:29:00,66.9,53.6,30.20,SSE,158,0.0,4.4,62,0.00,,,0.00,WUHU216HW,2013-01-29 21:29:00,
2013-01-29 16:34:00,66.9,53.4,30.20,SE,135,0.0,0.0,62,0.00,,,0.00,WUHU216HW,2013-01-29 21:34:00,
2013-01-29 16:39:00,66.7,53.7,30.20,SE,135,3.8,5.5,63,0.00,,,0.00,WUHU216HW,2013-01-29 21:39:00,
2013-01-29 16:44:00,66.3,53.3,30.19,South,180,0.0,5.5,63,0.00,,,0.00,WUHU216HW,2013-01-29 21:44:00,
2013-01-29 16:49:00,66.0,53.4,30.19,ESE,113,0.0,4.2,64,0.00,,,0.00,WUHU216HW,2013-01-29 21:49:00,
2013-01-29 16:54:00,66.0,53.4,30.19,SSE,158,0.0,1.7,64,0.00,,,0.00,WUHU216HW,2013-01-29 21:54:00,
2013-01-29 16:59:00,65.8,53.7,30.19,SSE,158,0.0,1.7,65,0.00,,,0.00,WUHU216HW,2013-01-29 21:59:00,
2013-01-29 17:04:00,65.6,53.5,30.18,SE,135,4.2,4.2,65,0.00,,,0.00,WUHU216HW,2013-01-29 22:04:00,
2013-01-29 17:09:00,65.4,53.3,30.18,SSE,158,1.1,4.2,65,0.00,,,0.00,WUHU216HW,2013-01-29 22:09:00,
2013-01-29 17:14:00,65.4,53.7,30.18,SE,135,0.0,4.2,66,0.00,,,0.00,WUHU216HW,2013-01-29 22:14:00,
2013-01-29 17:20:00,65.1,53.4,30.18,ESE,113,5.3,5.3,66,0.00,,,0.00,WUHU216HW,2013-01-29 22:20:00,
2013-01-29 17:25:00,64.9,53.2,30.18,SSE,158,4.4,5.3,66,0.00,,,0.00,WUHU216HW,2013-01-29 22:25:00,
2013-01-29 17:30:00,64.5,53.5,30.19,SE,135,0.0,5.3,67,0.00,,,0.00,WUHU216HW,2013-01-29 22:30:00,
2013-01-29 17:35:00,64.5,53.3,30.19,SE,135,0.0,7.6,67,0.00,,,0.00,WUHU216HW,2013-01-29 22:35:00,
2013-01-29 17:40:00,64.2,53.4,30.19,SE,135,0.0,7.6,68,0.00,,,0.00,WUHU216HW,2013-01-29 22:40:00,
2013-01-29 17:45:00,64.0,53.2,30.19,SSE,158,0.0,5.1,68,0.00,,,0.00,WUHU216HW,2013-01-29 22:45:00,
2013-01-29 17:50:00,63.8,53.5,30.18,ESE,113,7.1,7.1,69,0.00,,,0.00,WUHU216HW,2013-01-29 22:50:00,
2013-01-29 17:55:00,63.5,53.1,30.18,SSE,158,6.7,7.1,69,0.00,,,0.00,WUHU216HW,2013-01-29 22:55:00,
2013-01-29 18:00:00,63.3,52.9,30.19,ESE,113,5.8,6.7,69,0.00,,,0.00,WUHU216HW,2013-01-29 23:00:00,
2013-01-29 18:05:00,63.1,53.2,30.19,SE,135,3.1,6.7,70,0.00,,,0.00,WUHU216HW,2013-01-29 23:05:00,
2013-01-29 18:10:00,63.1,53.2,30.18,SE,135,1.7,11.8,70,0.00,,,0.00,WUHU216HW,2013-01-29 23:10:00,
2013-01-29 18:15:00,62.9,53.4,30.18,SSE,158,0.0,11.8,71,0.00,,,0.00,WUHU216HW,2013-01-29 23:15:00,
2013-01-29 18:20:00,62.7,53.2,30.18,SE,135,11.4,11.4,71,0.00,,,0.00,WUHU216HW,2013-01-29 23:20:00,
2013-01-29 18:25:00,62.6,53.4,30.18,SSE,158,0.0,11.4,72,0.00,,,0.00,WUHU216HW,2013-01-29 23:25:00,
2013-01-29 18:30:00,62.4,53.2,30.19,ESE,113,6.4,6.4,72,0.00,,,0.00,WUHU216HW,2013-01-29 23:30:00,
2013-01-29 18:35:00,62.2,53.0,30.19,SSE,158,2.0,6.4,72,0.00,,,0.00,WUHU216HW,2013-01-29 23:35:00,
2013-01-29 18:40:00,62.0,53.2,30.19,SE,135,4.2,7.6,73,0.00,,,0.00,WUHU216HW,2013-01-29 23:40:00,
2013-01-29 18:45:00,61.8,53.1,30.19,South,180,7.1,8.2,73,0.00,,,0.00,WUHU216HW,2013-01-29 23:45:00,
2013-01-29 18:50:00,61.7,52.9,30.19,ESE,113,3.5,8.2,73,0.00,,,0.00,WUHU216HW,2013-01-29 23:50:00,
2013-01-29 18:55:00,61.5,53.1,30.19,SSE,158,15.4,15.4,74,0.00,,,0.00,WUHU216HW,2013-01-29 23:55:00,
2013-01-29 19:00:00,61.3,53.0,30.18,SE,135,6.2,15.4,74,0.00,,,0.00,WUHU216HW,2013-01-30 00:00:00,
2013-01-29 19:05:00,61.3,53.0,30.18,SE,135,1.5,15.4,74,0.00,,,0.00,WUHU216HW,2013-01-30 00:05:00,
2013-01-29 19:10:00,61.1,53.2,30.18,SE,135,4.0,9.3,75,0.00,,,0.00,WUHU216HW,2013-01-30 00:10:00,
2013-01-29 19:15:00,60.9,53.0,30.18,SSE,158,2.6,9.3,75,0.00,,,0.00,WUHU216HW,2013-01-30 00:15:00,
2013-01-29 19:20:00,60.9,53.0,30.18,SE,135,2.0,9.1,75,0.00,,,0.00,WUHU216HW,2013-01-30 00:20:00,
2013-01-29 19:25:00,60.9,53.0,30.18,South,180,1.5,11.8,75,0.00,,,0.00,WUHU216HW,2013-01-30 00:25:00,
2013-01-29 19:30:00,60.9,53.0,30.18,SE,135,0.0,11.8,75,0.00,,,0.00,WUHU216HW,2013-01-30 00:30:00,
2013-01-29 19:35:00,60.8,52.8,30.18,SSE,158,0.0,6.2,75,0.00,,,0.00,WUHU216HW,2013-01-30 00:35:00,
2013-01-29 19:40:00,60.6,53.0,30.18,SE,135,1.1,6.2,76,0.00,,,0.00,WUHU216HW,2013-01-30 00:40:00,
2013-01-29 19:45:00,60.6,53.0,30.18,SSE,158,1.3,6.2,76,0.00,,,0.00,WUHU216HW,2013-01-30 00:45:00,
2013-01-29 19:50:00,60.6,53.0,30.18,SSE,158,0.0,5.1,76,0.00,,,0.00,WUHU216HW,2013-01-30 00:50:00,
2013-01-29 19:55:00,60.6,53.0,30.18,ESE,113,14.3,14.3,76,0.00,,,0.00,WUHU216HW,2013-01-30 00:55:00,
2013-01-29 20:00:00,60.6,53.0,30.19,SSE,158,2.2,14.3,76,0.00,,,0.00,WUHU216HW,2013-01-30 01:00:00,
2013-01-29 20:05:00,60.6,53.0,30.19,SSE,158,0.0,14.3,76,0.00,,,0.00,WUHU216HW,2013-01-30 01:05:00,
2013-01-29 20:10:00,60.6,53.0,30.19,SSE,158,9.8,9.8,76,0.00,,,0.00,WUHU216HW,2013-01-30 01:10:00,
2013-01-29 20:15:00,60.6,53.0,30.19,SE,135,5.8,9.8,76,0.00,,,0.00,WUHU216HW,2013-01-30 01:15:00,
2013-01-29 20:20:00,60.6,53.0,30.20,SE,135,0.0,9.8,76,0.00,,,0.00,WUHU216HW,2013-01-30 01:20:00,
2013-01-29 20:25:00,60.6,53.0,30.20,SSE,158,0.0,2.9,76,0.00,,,0.00,WUHU216HW,2013-01-30 01:25:00,
2013-01-29 20:30:00,60.6,53.0,30.20,SE,135,5.5,5.5,76,0.00,,,0.00,WUHU216HW,2013-01-30 01:30:00,
2013-01-29 20:35:00,60.4,53.2,30.20,ESE,113,4.6,5.5,77,0.00,,,0.00,WUHU216HW,2013-01-30 01:35:00,
2013-01-29 20:40:00,60.4,53.2,30.20,SSE,158,5.3,6.7,77,0.00,,,0.00,WUHU216HW,2013-01-30 01:40:00,
2013-01-29 20:45:00,60.4,53.2,30.21,ESE,113,4.6,6.7,77,0.00,,,0.00,WUHU216HW,2013-01-30 01:45:00,
2013-01-29 20:50:00,60.4,53.2,30.20,SSE,158,0.0,6.7,77,0.00,,,0.00,WUHU216HW,2013-01-30 01:50:00,
2013-01-29 20:55:00,60.4,53.2,30.20,SSE,158,0.0,4.2,77,0.00,,,0.00,WUHU216HW,2013-01-30 01:55:00,
2013-01-29 21:00:00,60.2,53.0,30.20,SE,135,1.7,1.7,77,0.00,,,0.00,WUHU216HW,2013-01-30 02:00:00,
2013-01-29 21:05:00,60.0,52.8,30.19,SSE,158,0.0,1.7,77,0.00,,,0.00,WUHU216HW,2013-01-30 02:05:00,
2013-01-29 21:10:00,60.0,53.2,30.19,SSE,158,2.0,2.0,78,0.00,,,0.00,WUHU216HW,2013-01-30 02:10:00,
2013-01-29 21:15:00,60.0,53.2,30.18,SE,135,2.4,6.7,78,0.00,,,0.00,WUHU216HW,2013-01-30 02:15:00,
2013-01-29 21:20:00,60.0,53.2,30.18,ESE,113,4.2,6.7,78,0.00,,,0.00,WUHU216HW,2013-01-30 02:20:00,
2013-01-29 21:25:00,60.0,53.2,30.17,SE,135,0.0,4.2,78,0.00,,,0.00,WUHU216HW,2013-01-30 02:25:00,
2013-01-29 21:30:00,60.0,53.2,30.17,ESE,113,4.6,6.7,78,0.00,,,0.00,WUHU216HW,2013-01-30 02:30:00,
2013-01-29 21:35:00,59.9,53.0,30.17,SSE,158,1.3,6.7,78,0.00,,,0.00,WUHU216HW,2013-01-30 02:35:00,
2013-01-29 21:40:00,59.9,53.0,30.17,SSE,158,3.8,3.8,78,0.00,,,0.00,WUHU216HW,2013-01-30 02:40:00,
2013-01-29 21:45:00,59.9,53.4,30.16,SE,135,6.4,7.3,79,0.00,,,0.00,WUHU216HW,2013-01-30 02:45:00,
2013-01-29 21:50:00,59.9,53.4,30.16,SSE,158,2.9,7.3,79,0.00,,,0.00,WUHU216HW,2013-01-30 02:50:00,
2013-01-29 21:55:00,59.9,53.4,30.16,SSE,158,7.1,7.1,79,0.00,,,0.00,WUHU216HW,2013-01-30 02:55:00,
2013-01-29 22:00:00,59.9,53.4,30.17,SSE,158,2.6,7.1,79,0.00,,,0.00,WUHU216HW,2013-01-30 03:00:00,
2013-01-29 22:05:00,59.9,53.4,30.17,SSE,158,0.0,7.1,79,0.00,,,0.00,WUHU216HW,2013-01-30 03:05:00,
2013-01-29 22:10:00,59.9,53.4,30.17,SSE,158,7.3,8.5,79,0.00,,,0.00,WUHU216HW,2013-01-30 03:10:00,
2013-01-29 22:15:00,59.9,53.4,30.16,SSE,158,0.0,8.5,79,0.00,,,0.00,WUHU216HW,2013-01-30 03:15:00,
2013-01-29 22:20:00,59.9,53.7,30.16,SSE,158,6.7,7.3,80,0.00,,,0.00,WUHU216HW,2013-01-30 03:20:00,
2013-01-29 22:25:00,59.9,53.7,30.15,SSE,158,0.0,6.7,80,0.00,,,0.00,WUHU216HW,2013-01-30 03:25:00,
2013-01-29 22:30:00,59.9,53.7,30.16,SE,135,0.0,2.9,80,0.00,,,0.00,WUHU216HW,2013-01-30 03:30:00,
2013-01-29 22:35:00,59.9,53.7,30.15,SE,135,3.8,3.8,80,0.00,,,0.00,WUHU216HW,2013-01-30 03:35:00,
2013-01-29 22:40:00,59.9,53.7,30.16,SSE,158,2.2,3.8,80,0.00,,,0.00,WUHU216HW,2013-01-30 03:40:00,
2013-01-29 22:45:00,59.9,53.7,30.15,South,180,0.0,2.2,80,0.00,,,0.00,WUHU216HW,2013-01-30 03:45:00,
2013-01-29 22:50:00,59.9,53.7,30.14,SE,135,0.0,2.2,80,0.00,,,0.00,WUHU216HW,2013-01-30 03:50:00,
2013-01-29 22:55:00,59.9,53.7,30.14,SSE,158,0.0,5.3,80,0.00,,,0.00,WUHU216HW,2013-01-30 03:55:00,
2013-01-29 23:00:00,59.9,53.7,30.14,SE,135,0.0,5.3,80,0.00,,,0.00,WUHU216HW,2013-01-30 04:00:00,
2013-01-29 23:05:00,60.0,53.9,30.14,SE,135,0.0,0.0,80,0.00,,,0.00,WUHU216HW,2013-01-30 04:05:00,
2013-01-29 23:10:00,60.0,54.2,30.14,SSE,158,9.8,9.8,81,0.00,,,0.00,WUHU216HW,2013-01-30 04:10:00,
2013-01-29 23:15:00,60.0,54.2,30.14,SSE,158,0.0,9.8,81,0.00,,,0.00,WUHU216HW,2013-01-30 04:15:00,
2013-01-29 23:20:00,60.0,54.2,30.13,SE,135,0.0,9.8,82,0.00,,,0.00,WUHU216HW,2013-01-30 04:20:00,
2013-01-29 23:25:00,60.0,54.6,30.13,SSE,158,0.0,1.1,82,0.00,,,0.00,WUHU216HW,2013-01-30 04:25:00,
2013-01-29 23:30:00,60.0,54.6,30.13,SE,135,0.0,7.6,82,0.00,,,0.00,WUHU216HW,2013-01-30 04:30:00,
2013-01-29 23:35:00,59.9,54.4,30.14,SE,135,1.3,7.6,82,0.00,,,0.00,WUHU216HW,2013-01-30 04:35:00,
2013-01-29 23:40:00,59.9,54.7,30.13,South,180,9.1,9.1,83,0.00,,,0.00,WUHU216HW,2013-01-30 04:40:00,
2013-01-29 23:45:00,59.7,54.5,30.13,SE,135,0.0,9.1,83,0.00,,,0.00,WUHU216HW,2013-01-30 04:45:00,
2013-01-29 23:50:00,59.7,54.5,30.13,SSE,158,0.0,9.1,84,0.00,,,0.00,WUHU216HW,2013-01-30 04:50:00,
2013-01-29 23:55:00,59.5,54.7,30.12,ESE,113,6.9,6.9,84,0.00,,,0.00,WUHU216HW,2013-01-30 04:55:00,